Terminal Aerodrome Forecast
Issued by NWS St Louis, MO

Home | Current Version | Previous Version | Text Only | Print | Product List | Glossary On
Versions: 1 2 3 4 5 6 7 8 9 10 11 12 13 14 15 16 17 18 19 20 21 22 23 24 25 26 27 28 29 30 31
000
FTUS43 KLSX 232300
TAFSTL
TAF
KSTL 232338Z 2400/2506 02012G19KT P6SM SCT250
     FM240400 05009KT P6SM BKN025
     FM241300 10011KT 4SM -SHRA VCTS OVC015CB
     FM241700 12014KT P6SM BKN030
     FM250300 14012KT 4SM -SHRA VCTS BKN030CB=

USA.gov is the U.S. government's official web portal to all federal, state and local government web resources and services.